sensor_id;sensor_type;location;lat;lon;timestamp;P1;durP1;ratioP1;P2;durP2;ratioP2
34697;SDS011;61391;50.922;6.928;2023-05-24T00:01:52;2.70;;;1.25;;
34697;SDS011;61391;50.922;6.928;2023-05-24T00:04:20;3.63;;;1.33;;
34697;SDS011;61391;50.922;6.928;2023-05-24T00:06:58;2.90;;;0.90;;
34697;SDS011;61391;50.922;6.928;2023-05-24T00:09:30;1.13;;;0.93;;
34697;SDS011;61391;50.922;6.928;2023-05-24T00:15:18;1.55;;;0.77;;
34697;SDS011;61391;50.922;6.928;2023-05-24T00:17:51;2.17;;;1.13;;
34697;SDS011;61391;50.922;6.928;2023-05-24T00:20:20;5.45;;;0.80;;
34697;SDS011;61391;50.922;6.928;2023-05-24T00:22:54;6.55;;;0.95;;
34697;SDS011;61391;50.922;6.928;2023-05-24T00:25:29;2.65;;;1.20;;
34697;SDS011;61391;50.922;6.928;2023-05-24T00:28:06;2.10;;;1.30;;
34697;SDS011;61391;50.922;6.928;2023-05-24T00:30:37;2.13;;;1.17;;
34697;SDS011;61391;50.922;6.928;2023-05-24T00:33:07;1.63;;;0.93;;
34697;SDS011;61391;50.922;6.928;2023-05-24T00:35:36;1.63;;;1.05;;
34697;SDS011;61391;50.922;6.928;2023-05-24T00:38:03;2.53;;;1.05;;
34697;SDS011;61391;50.922;6.928;2023-05-24T00:40:36;3.88;;;1.10;;
34697;SDS011;61391;50.922;6.928;2023-05-24T00:43:05;2.92;;;0.85;;
34697;SDS011;61391;50.922;6.928;2023-05-24T00:45:33;3.30;;;0.77;;
34697;SDS011;61391;50.922;6.928;2023-05-24T00:47:59;2.13;;;1.00;;
34697;SDS011;61391;50.922;6.928;2023-05-24T00:50:29;2.55;;;1.02;;
34697;SDS011;61391;50.922;6.928;2023-05-24T00:52:59;5.30;;;1.35;;
34697;SDS011;61391;50.922;6.928;2023-05-24T00:55:32;4.05;;;0.73;;
34697;SDS011;61391;50.922;6.928;2023-05-24T01:01:34;4.70;;;1.38;;
34697;SDS011;61391;50.922;6.928;2023-05-24T01:04:04;1.33;;;1.05;;
34697;SDS011;61391;50.922;6.928;2023-05-24T01:09:46;2.08;;;1.05;;
34697;SDS011;61391;50.922;6.928;2023-05-24T01:12:30;2.08;;;1.30;;
34697;SDS011;61391;50.922;6.928;2023-05-24T01:18:15;1.98;;;1.00;;
34697;SDS011;61391;50.922;6.928;2023-05-24T01:20:57;3.03;;;1.20;;
34697;SDS011;61391;50.922;6.928;2023-05-24T01:30:12;1.95;;;0.85;;
34697;SDS011;61391;50.922;6.928;2023-05-24T01:32:38;2.97;;;1.00;;
34697;SDS011;61391;50.922;6.928;2023-05-24T01:35:04;1.35;;;1.05;;
34697;SDS011;61391;50.922;6.928;2023-05-24T01:37:30;3.60;;;1.08;;
34697;SDS011;61391;50.922;6.928;2023-05-24T01:39:58;3.95;;;1.30;;
34697;SDS011;61391;50.922;6.928;2023-05-24T01:45:15;2.53;;;0.70;;
34697;SDS011;61391;50.922;6.928;2023-05-24T01:50:59;2.53;;;1.30;;
34697;SDS011;61391;50.922;6.928;2023-05-24T01:53:34;1.33;;;0.80;;
34697;SDS011;61391;50.922;6.928;2023-05-24T01:56:10;3.50;;;1.23;;
34697;SDS011;61391;50.922;6.928;2023-05-24T01:58:38;3.70;;;0.90;;
34697;SDS011;61391;50.922;6.928;2023-05-24T02:01:09;3.87;;;1.30;;
34697;SDS011;61391;50.922;6.928;2023-05-24T02:03:40;4.15;;;1.48;;
34697;SDS011;61391;50.922;6.928;2023-05-24T02:06:08;3.67;;;1.25;;
34697;SDS011;61391;50.922;6.928;2023-05-24T02:08:34;2.08;;;1.35;;
34697;SDS011;61391;50.922;6.928;2023-05-24T02:11:02;3.30;;;0.52;;
34697;SDS011;61391;50.922;6.928;2023-05-24T02:13:27;2.90;;;1.02;;
34697;SDS011;61391;50.922;6.928;2023-05-24T02:15:58;5.13;;;1.77;;
34697;SDS011;61391;50.922;6.928;2023-05-24T02:18:26;1.73;;;0.80;;
34697;SDS011;61391;50.922;6.928;2023-05-24T02:20:53;2.28;;;0.70;;
34697;SDS011;61391;50.922;6.928;2023-05-24T02:23:27;3.13;;;0.90;;
34697;SDS011;61391;50.922;6.928;2023-05-24T02:25:54;2.97;;;1.30;;
34697;SDS011;61391;50.922;6.928;2023-05-24T02:28:20;3.15;;;1.13;;
34697;SDS011;61391;50.922;6.928;2023-05-24T02:30:48;1.60;;;0.80;;
34697;SDS011;61391;50.922;6.928;2023-05-24T02:33:15;1.13;;;0.75;;
34697;SDS011;61391;50.922;6.928;2023-05-24T02:35:43;1.35;;;0.70;;
34697;SDS011;61391;50.922;6.928;2023-05-24T02:38:09;4.80;;;1.67;;
34697;SDS011;61391;50.922;6.928;2023-05-24T02:40:35;2.28;;;1.00;;
34697;SDS011;61391;50.922;6.928;2023-05-24T02:43:05;2.72;;;1.30;;
34697;SDS011;61391;50.922;6.928;2023-05-24T02:45:36;3.42;;;1.30;;
34697;SDS011;61391;50.922;6.928;2023-05-24T02:48:03;2.22;;;0.82;;
34697;SDS011;61391;50.922;6.928;2023-05-24T02:53:53;2.30;;;0.90;;
34697;SDS011;61391;50.922;6.928;2023-05-24T02:59:43;1.95;;;0.80;;
34697;SDS011;61391;50.922;6.928;2023-05-24T03:02:08;2.22;;;1.63;;
34697;SDS011;61391;50.922;6.928;2023-05-24T03:04:37;5.32;;;1.13;;
34697;SDS011;61391;50.922;6.928;2023-05-24T03:07:03;3.45;;;1.10;;
34697;SDS011;61391;50.922;6.928;2023-05-24T03:09:30;3.22;;;1.40;;
34697;SDS011;61391;50.922;6.928;2023-05-24T03:12:00;5.00;;;1.38;;
34697;SDS011;61391;50.922;6.928;2023-05-24T03:14:27;5.78;;;1.35;;
34697;SDS011;61391;50.922;6.928;2023-05-24T03:16:53;2.92;;;1.23;;
34697;SDS011;61391;50.922;6.928;2023-05-24T03:19:20;3.25;;;1.13;;
34697;SDS011;61391;50.922;6.928;2023-05-24T03:21:53;1.67;;;1.02;;
34697;SDS011;61391;50.922;6.928;2023-05-24T03:24:20;2.97;;;1.05;;
34697;SDS011;61391;50.922;6.928;2023-05-24T03:26:47;2.70;;;1.23;;
34697;SDS011;61391;50.922;6.928;2023-05-24T03:29:18;4.00;;;1.50;;
34697;SDS011;61391;50.922;6.928;2023-05-24T03:35:07;2.50;;;1.23;;
34697;SDS011;61391;50.922;6.928;2023-05-24T03:37:35;2.88;;;1.33;;
34697;SDS011;61391;50.922;6.928;2023-05-24T03:40:07;3.30;;;1.27;;
34697;SDS011;61391;50.922;6.928;2023-05-24T03:42:38;5.25;;;1.38;;
34697;SDS011;61391;50.922;6.928;2023-05-24T03:45:04;1.60;;;1.27;;
34697;SDS011;61391;50.922;6.928;2023-05-24T03:47:30;4.63;;;1.13;;
34697;SDS011;61391;50.922;6.928;2023-05-24T03:49:59;2.75;;;1.42;;
34697;SDS011;61391;50.922;6.928;2023-05-24T03:52:26;1.45;;;1.20;;
34697;SDS011;61391;50.922;6.928;2023-05-24T03:54:53;3.15;;;1.00;;
34697;SDS011;61391;50.922;6.928;2023-05-24T03:57:20;7.80;;;1.42;;
34697;SDS011;61391;50.922;6.928;2023-05-24T03:59:47;4.32;;;1.52;;
34697;SDS011;61391;50.922;6.928;2023-05-24T04:05:36;2.95;;;1.40;;
34697;SDS011;61391;50.922;6.928;2023-05-24T04:08:02;3.20;;;1.50;;
34697;SDS011;61391;50.922;6.928;2023-05-24T04:10:31;5.32;;;1.48;;
34697;SDS011;61391;50.922;6.928;2023-05-24T04:12:58;5.18;;;2.22;;
34697;SDS011;61391;50.922;6.928;2023-05-24T04:15:33;3.05;;;1.48;;
34697;SDS011;61391;50.922;6.928;2023-05-24T04:18:04;2.33;;;1.20;;
34697;SDS011;61391;50.922;6.928;2023-05-24T04:20:32;3.30;;;1.42;;
34697;SDS011;61391;50.922;6.928;2023-05-24T04:22:57;3.78;;;1.10;;
34697;SDS011;61391;50.922;6.928;2023-05-24T04:25:27;2.33;;;1.10;;
34697;SDS011;61391;50.922;6.928;2023-05-24T04:27:57;2.95;;;1.55;;
34697;SDS011;61391;50.922;6.928;2023-05-24T04:30:24;4.82;;;1.58;;
34697;SDS011;61391;50.922;6.928;2023-05-24T04:32:57;2.38;;;0.98;;
34697;SDS011;61391;50.922;6.928;2023-05-24T04:35:25;2.92;;;1.33;;
34697;SDS011;61391;50.922;6.928;2023-05-24T04:37:51;6.15;;;1.42;;
34697;SDS011;61391;50.922;6.928;2023-05-24T04:40:17;3.58;;;2.05;;
34697;SDS011;61391;50.922;6.928;2023-05-24T04:46:08;4.97;;;1.45;;
34697;SDS011;61391;50.922;6.928;2023-05-24T04:48:35;3.17;;;1.38;;
34697;SDS011;61391;50.922;6.928;2023-05-24T04:51:03;4.38;;;1.33;;
34697;SDS011;61391;50.922;6.928;2023-05-24T04:53:30;2.97;;;1.55;;
34697;SDS011;61391;50.922;6.928;2023-05-24T04:56:01;3.00;;;1.30;;
34697;SDS011;61391;50.922;6.928;2023-05-24T04:58:27;2.20;;;1.20;;
34697;SDS011;61391;50.922;6.928;2023-05-24T05:00:53;2.28;;;1.65;;
34697;SDS011;61391;50.922;6.928;2023-05-24T05:03:19;2.58;;;1.65;;
34697;SDS011;61391;50.922;6.928;2023-05-24T05:12:28;2.78;;;1.48;;
34697;SDS011;61391;50.922;6.928;2023-05-24T05:14:54;2.80;;;1.60;;
34697;SDS011;61391;50.922;6.928;2023-05-24T05:17:21;6.65;;;1.70;;
34697;SDS011;61391;50.922;6.928;2023-05-24T05:19:47;3.03;;;1.30;;
34697;SDS011;61391;50.922;6.928;2023-05-24T05:22:12;2.30;;;1.23;;
34697;SDS011;61391;50.922;6.928;2023-05-24T05:24:38;1.90;;;1.27;;
34697;SDS011;61391;50.922;6.928;2023-05-24T05:27:04;5.05;;;2.00;;
34697;SDS011;61391;50.922;6.928;2023-05-24T05:29:30;2.80;;;1.13;;
34697;SDS011;61391;50.922;6.928;2023-05-24T05:31:56;4.28;;;1.83;;
34697;SDS011;61391;50.922;6.928;2023-05-24T05:34:21;4.47;;;1.83;;
34697;SDS011;61391;50.922;6.928;2023-05-24T05:36:47;4.95;;;1.70;;
34697;SDS011;61391;50.922;6.928;2023-05-24T05:39:13;2.60;;;1.42;;
34697;SDS011;61391;50.922;6.928;2023-05-24T05:41:38;4.82;;;1.35;;
34697;SDS011;61391;50.922;6.928;2023-05-24T05:44:07;7.18;;;1.92;;
34697;SDS011;61391;50.922;6.928;2023-05-24T05:46:33;5.25;;;1.75;;
34697;SDS011;61391;50.922;6.928;2023-05-24T05:48:59;4.47;;;1.63;;
34697;SDS011;61391;50.922;6.928;2023-05-24T05:51:25;3.92;;;1.52;;
34697;SDS011;61391;50.922;6.928;2023-05-24T05:53:50;6.78;;;2.90;;
34697;SDS011;61391;50.922;6.928;2023-05-24T05:56:16;3.50;;;1.17;;
34697;SDS011;61391;50.922;6.928;2023-05-24T05:58:42;4.53;;;2.40;;
34697;SDS011;61391;50.922;6.928;2023-05-24T06:01:07;4.05;;;1.50;;
34697;SDS011;61391;50.922;6.928;2023-05-24T06:03:33;4.90;;;1.85;;
34697;SDS011;61391;50.922;6.928;2023-05-24T06:05:58;4.35;;;2.05;;
34697;SDS011;61391;50.922;6.928;2023-05-24T06:08:24;4.72;;;1.35;;
34697;SDS011;61391;50.922;6.928;2023-05-24T06:10:50;2.22;;;1.40;;
34697;SDS011;61391;50.922;6.928;2023-05-24T06:13:15;5.25;;;1.60;;
34697;SDS011;61391;50.922;6.928;2023-05-24T06:15:41;2.90;;;1.65;;
34697;SDS011;61391;50.922;6.928;2023-05-24T06:18:07;7.15;;;1.63;;
34697;SDS011;61391;50.922;6.928;2023-05-24T06:20:32;3.80;;;2.03;;
34697;SDS011;61391;50.922;6.928;2023-05-24T06:22:58;3.97;;;1.38;;
34697;SDS011;61391;50.922;6.928;2023-05-24T06:25:24;4.55;;;1.60;;
34697;SDS011;61391;50.922;6.928;2023-05-24T06:31:13;4.93;;;1.75;;
34697;SDS011;61391;50.922;6.928;2023-05-24T06:33:38;4.65;;;1.58;;
34697;SDS011;61391;50.922;6.928;2023-05-24T06:36:04;4.95;;;1.70;;
34697;SDS011;61391;50.922;6.928;2023-05-24T06:38:30;4.90;;;1.58;;
34697;SDS011;61391;50.922;6.928;2023-05-24T06:40:56;4.75;;;1.90;;
34697;SDS011;61391;50.922;6.928;2023-05-24T06:43:22;7.40;;;1.75;;
34697;SDS011;61391;50.922;6.928;2023-05-24T06:45:48;5.35;;;1.60;;
34697;SDS011;61391;50.922;6.928;2023-05-24T06:48:13;3.72;;;1.50;;
34697;SDS011;61391;50.922;6.928;2023-05-24T06:50:39;5.18;;;1.40;;
34697;SDS011;61391;50.922;6.928;2023-05-24T06:53:06;4.75;;;2.05;;
34697;SDS011;61391;50.922;6.928;2023-05-24T06:55:31;3.40;;;1.20;;
34697;SDS011;61391;50.922;6.928;2023-05-24T06:57:57;5.93;;;1.65;;
34697;SDS011;61391;50.922;6.928;2023-05-24T07:00:23;5.10;;;1.88;;
34697;SDS011;61391;50.922;6.928;2023-05-24T07:02:48;8.45;;;2.38;;
34697;SDS011;61391;50.922;6.928;2023-05-24T07:05:14;6.88;;;1.50;;
34697;SDS011;61391;50.922;6.928;2023-05-24T07:07:41;2.00;;;1.17;;
34697;SDS011;61391;50.922;6.928;2023-05-24T07:10:08;3.45;;;1.17;;
34697;SDS011;61391;50.922;6.928;2023-05-24T07:12:38;6.38;;;1.33;;
34697;SDS011;61391;50.922;6.928;2023-05-24T07:15:05;2.58;;;1.10;;
34697;SDS011;61391;50.922;6.928;2023-05-24T07:17:33;3.63;;;1.52;;
34697;SDS011;61391;50.922;6.928;2023-05-24T07:20:02;2.78;;;1.33;;
34697;SDS011;61391;50.922;6.928;2023-05-24T07:22:38;7.57;;;1.73;;
34697;SDS011;61391;50.922;6.928;2023-05-24T07:25:07;2.90;;;1.25;;
34697;SDS011;61391;50.922;6.928;2023-05-24T07:30:57;3.67;;;1.00;;
34697;SDS011;61391;50.922;6.928;2023-05-24T07:33:22;3.22;;;1.33;;
34697;SDS011;61391;50.922;6.928;2023-05-24T07:35:49;2.85;;;0.98;;
34697;SDS011;61391;50.922;6.928;2023-05-24T07:38:16;2.75;;;1.35;;
34697;SDS011;61391;50.922;6.928;2023-05-24T07:40:42;1.85;;;1.05;;
34697;SDS011;61391;50.922;6.928;2023-05-24T07:43:09;2.35;;;1.08;;
34697;SDS011;61391;50.922;6.928;2023-05-24T07:45:36;3.92;;;1.25;;
34697;SDS011;61391;50.922;6.928;2023-05-24T07:48:04;2.78;;;1.20;;
34697;SDS011;61391;50.922;6.928;2023-05-24T07:50:36;5.30;;;1.55;;
34697;SDS011;61391;50.922;6.928;2023-05-24T07:53:06;2.92;;;1.23;;
34697;SDS011;61391;50.922;6.928;2023-05-24T07:55:32;3.30;;;1.20;;
34697;SDS011;61391;50.922;6.928;2023-05-24T07:57:57;4.05;;;1.75;;
34697;SDS011;61391;50.922;6.928;2023-05-24T08:00:23;2.63;;;0.98;;
34697;SDS011;61391;50.922;6.928;2023-05-24T08:02:49;2.00;;;0.82;;
34697;SDS011;61391;50.922;6.928;2023-05-24T08:05:15;5.80;;;1.52;;
34697;SDS011;61391;50.922;6.928;2023-05-24T08:11:02;1.63;;;0.93;;
34697;SDS011;61391;50.922;6.928;2023-05-24T08:13:28;2.55;;;1.08;;
34697;SDS011;61391;50.922;6.928;2023-05-24T08:15:54;3.53;;;1.30;;
34697;SDS011;61391;50.922;6.928;2023-05-24T08:18:19;2.00;;;0.93;;
34697;SDS011;61391;50.922;6.928;2023-05-24T08:20:46;5.53;;;1.20;;
34697;SDS011;61391;50.922;6.928;2023-05-24T08:23:12;1.70;;;0.70;;
34697;SDS011;61391;50.922;6.928;2023-05-24T08:25:37;1.55;;;1.17;;
34697;SDS011;61391;50.922;6.928;2023-05-24T08:28:04;2.28;;;1.00;;
34697;SDS011;61391;50.922;6.928;2023-05-24T08:30:30;3.03;;;1.33;;
34697;SDS011;61391;50.922;6.928;2023-05-24T08:32:56;2.58;;;1.40;;
34697;SDS011;61391;50.922;6.928;2023-05-24T08:35:22;5.35;;;1.80;;
34697;SDS011;61391;50.922;6.928;2023-05-24T08:37:48;4.00;;;2.40;;
34697;SDS011;61391;50.922;6.928;2023-05-24T08:40:14;2.75;;;2.45;;
34697;SDS011;61391;50.922;6.928;2023-05-24T08:42:40;4.30;;;2.25;;
34697;SDS011;61391;50.922;6.928;2023-05-24T08:45:13;3.35;;;1.92;;
34697;SDS011;61391;50.922;6.928;2023-05-24T08:47:39;3.85;;;2.00;;
34697;SDS011;61391;50.922;6.928;2023-05-24T08:50:06;3.20;;;1.83;;
34697;SDS011;61391;50.922;6.928;2023-05-24T08:52:32;5.10;;;2.03;;
34697;SDS011;61391;50.922;6.928;2023-05-24T08:54:58;2.70;;;1.40;;
34697;SDS011;61391;50.922;6.928;2023-05-24T08:57:27;3.42;;;1.30;;
34697;SDS011;61391;50.922;6.928;2023-05-24T08:59:55;4.43;;;1.55;;
34697;SDS011;61391;50.922;6.928;2023-05-24T09:02:21;4.40;;;2.10;;
34697;SDS011;61391;50.922;6.928;2023-05-24T09:04:48;5.82;;;2.03;;
34697;SDS011;61391;50.922;6.928;2023-05-24T09:07:16;6.00;;;1.60;;
34697;SDS011;61391;50.922;6.928;2023-05-24T09:09:46;4.20;;;1.85;;
34697;SDS011;61391;50.922;6.928;2023-05-24T09:15:36;5.95;;;1.90;;
34697;SDS011;61391;50.922;6.928;2023-05-24T09:18:01;5.38;;;1.67;;
34697;SDS011;61391;50.922;6.928;2023-05-24T09:20:27;9.65;;;3.17;;
34697;SDS011;61391;50.922;6.928;2023-05-24T09:22:54;5.68;;;2.47;;
34697;SDS011;61391;50.922;6.928;2023-05-24T09:25:21;3.75;;;1.88;;
34697;SDS011;61391;50.922;6.928;2023-05-24T09:27:50;4.40;;;2.50;;
34697;SDS011;61391;50.922;6.928;2023-05-24T09:30:17;7.20;;;3.05;;
34697;SDS011;61391;50.922;6.928;2023-05-24T09:32:58;4.43;;;2.17;;
34697;SDS011;61391;50.922;6.928;2023-05-24T09:35:28;17.30;;;10.95;;
34697;SDS011;61391;50.922;6.928;2023-05-24T09:37:55;5.95;;;3.50;;
34697;SDS011;61391;50.922;6.928;2023-05-24T09:40:24;5.00;;;2.40;;
34697;SDS011;61391;50.922;6.928;2023-05-24T09:43:07;4.65;;;2.90;;
34697;SDS011;61391;50.922;6.928;2023-05-24T09:45:37;5.15;;;2.78;;
34697;SDS011;61391;50.922;6.928;2023-05-24T09:48:10;5.57;;;2.10;;
34697;SDS011;61391;50.922;6.928;2023-05-24T09:50:37;4.25;;;2.53;;
34697;SDS011;61391;50.922;6.928;2023-05-24T09:53:03;5.70;;;2.70;;
34697;SDS011;61391;50.922;6.928;2023-05-24T09:55:29;6.35;;;3.70;;
34697;SDS011;61391;50.922;6.928;2023-05-24T09:58:02;4.72;;;3.20;;
34697;SDS011;61391;50.922;6.928;2023-05-24T10:00:30;6.18;;;3.58;;
34697;SDS011;61391;50.922;6.928;2023-05-24T10:03:04;5.05;;;3.33;;
34697;SDS011;61391;50.922;6.928;2023-05-24T10:05:31;6.63;;;4.20;;
34697;SDS011;61391;50.922;6.928;2023-05-24T10:07:57;7.03;;;3.95;;
34697;SDS011;61391;50.922;6.928;2023-05-24T10:10:26;5.72;;;3.95;;
34697;SDS011;61391;50.922;6.928;2023-05-24T10:12:54;7.72;;;3.58;;
34697;SDS011;61391;50.922;6.928;2023-05-24T10:15:21;8.70;;;4.32;;
34697;SDS011;61391;50.922;6.928;2023-05-24T10:17:47;7.60;;;4.93;;
34697;SDS011;61391;50.922;6.928;2023-05-24T10:20:13;6.40;;;4.40;;
34697;SDS011;61391;50.922;6.928;2023-05-24T10:22:40;8.77;;;4.45;;
34697;SDS011;61391;50.922;6.928;2023-05-24T10:25:09;8.95;;;4.25;;
34697;SDS011;61391;50.922;6.928;2023-05-24T10:27:44;4.95;;;4.07;;
34697;SDS011;61391;50.922;6.928;2023-05-24T10:32:58;6.63;;;4.25;;
34697;SDS011;61391;50.922;6.928;2023-05-24T10:35:26;7.53;;;3.95;;
34697;SDS011;61391;50.922;6.928;2023-05-24T10:37:53;5.97;;;4.40;;
34697;SDS011;61391;50.922;6.928;2023-05-24T10:40:20;8.48;;;3.72;;
34697;SDS011;61391;50.922;6.928;2023-05-24T10:42:49;7.70;;;3.95;;
34697;SDS011;61391;50.922;6.928;2023-05-24T10:45:28;5.15;;;3.92;;
34697;SDS011;61391;50.922;6.928;2023-05-24T10:48:00;9.13;;;3.85;;
34697;SDS011;61391;50.922;6.928;2023-05-24T10:50:31;4.97;;;3.30;;
34697;SDS011;61391;50.922;6.928;2023-05-24T10:53:13;6.30;;;3.60;;
34697;SDS011;61391;50.922;6.928;2023-05-24T10:58:19;6.75;;;3.80;;
34697;SDS011;61391;50.922;6.928;2023-05-24T11:00:47;4.68;;;3.38;;
34697;SDS011;61391;50.922;6.928;2023-05-24T11:03:15;5.90;;;3.15;;
34697;SDS011;61391;50.922;6.928;2023-05-24T11:08:13;5.20;;;2.67;;
34697;SDS011;61391;50.922;6.928;2023-05-24T11:13:33;4.22;;;3.50;;
34697;SDS011;61391;50.922;6.928;2023-05-24T11:16:01;5.25;;;2.85;;
34697;SDS011;61391;50.922;6.928;2023-05-24T11:18:27;4.07;;;3.00;;
34697;SDS011;61391;50.922;6.928;2023-05-24T11:20:53;3.95;;;3.15;;
34697;SDS011;61391;50.922;6.928;2023-05-24T11:23:21;8.02;;;3.78;;
34697;SDS011;61391;50.922;6.928;2023-05-24T11:25:47;6.22;;;3.67;;
34697;SDS011;61391;50.922;6.928;2023-05-24T11:28:14;5.68;;;3.08;;
34697;SDS011;61391;50.922;6.928;2023-05-24T11:30:41;4.35;;;3.45;;
34697;SDS011;61391;50.922;6.928;2023-05-24T11:33:17;3.55;;;2.75;;
34697;SDS011;61391;50.922;6.928;2023-05-24T11:35:47;6.28;;;3.63;;
34697;SDS011;61391;50.922;6.928;2023-05-24T11:38:20;4.10;;;2.78;;
34697;SDS011;61391;50.922;6.928;2023-05-24T11:40:47;4.82;;;3.03;;
34697;SDS011;61391;50.922;6.928;2023-05-24T11:43:15;5.45;;;2.95;;
34697;SDS011;61391;50.922;6.928;2023-05-24T11:45:45;3.67;;;2.35;;
34697;SDS011;61391;50.922;6.928;2023-05-24T11:48:13;2.67;;;2.08;;
34697;SDS011;61391;50.922;6.928;2023-05-24T11:50:40;2.78;;;2.35;;
34697;SDS011;61391;50.922;6.928;2023-05-24T11:53:10;4.25;;;2.40;;
34697;SDS011;61391;50.922;6.928;2023-05-24T11:55:37;4.70;;;2.58;;
34697;SDS011;61391;50.922;6.928;2023-05-24T11:58:05;6.82;;;2.92;;
34697;SDS011;61391;50.922;6.928;2023-05-24T12:00:36;5.45;;;2.72;;
34697;SDS011;61391;50.922;6.928;2023-05-24T12:03:02;3.42;;;2.30;;
34697;SDS011;61391;50.922;6.928;2023-05-24T12:05:31;3.72;;;2.53;;
34697;SDS011;61391;50.922;6.928;2023-05-24T12:08:04;4.80;;;2.47;;
34697;SDS011;61391;50.922;6.928;2023-05-24T12:10:32;4.85;;;2.67;;
34697;SDS011;61391;50.922;6.928;2023-05-24T12:13:02;6.22;;;2.50;;
34697;SDS011;61391;50.922;6.928;2023-05-24T12:15:28;5.25;;;2.30;;
34697;SDS011;61391;50.922;6.928;2023-05-24T12:17:55;4.95;;;2.63;;
34697;SDS011;61391;50.922;6.928;2023-05-24T12:20:21;3.47;;;2.10;;
34697;SDS011;61391;50.922;6.928;2023-05-24T12:22:48;6.53;;;3.13;;
34697;SDS011;61391;50.922;6.928;2023-05-24T12:25:17;5.22;;;2.17;;
34697;SDS011;61391;50.922;6.928;2023-05-24T12:27:53;4.30;;;2.28;;
34697;SDS011;61391;50.922;6.928;2023-05-24T12:30:26;4.95;;;1.60;;
34697;SDS011;61391;50.922;6.928;2023-05-24T12:32:52;3.70;;;1.55;;
34697;SDS011;61391;50.922;6.928;2023-05-24T12:35:19;1.73;;;1.63;;
34697;SDS011;61391;50.922;6.928;2023-05-24T12:37:45;5.13;;;2.00;;
34697;SDS011;61391;50.922;6.928;2023-05-24T12:40:19;3.08;;;2.00;;
34697;SDS011;61391;50.922;6.928;2023-05-24T12:42:50;3.47;;;2.08;;
34697;SDS011;61391;50.922;6.928;2023-05-24T12:45:18;3.85;;;2.22;;
34697;SDS011;61391;50.922;6.928;2023-05-24T12:47:51;3.08;;;2.08;;
34697;SDS011;61391;50.922;6.928;2023-05-24T12:50:22;3.13;;;1.70;;
34697;SDS011;61391;50.922;6.928;2023-05-24T12:52:50;4.45;;;1.83;;
34697;SDS011;61391;50.922;6.928;2023-05-24T12:58:51;3.00;;;1.88;;
34697;SDS011;61391;50.922;6.928;2023-05-24T13:01:18;3.50;;;2.30;;
34697;SDS011;61391;50.922;6.928;2023-05-24T13:03:44;4.57;;;2.60;;
34697;SDS011;61391;50.922;6.928;2023-05-24T13:06:10;5.50;;;2.10;;
34697;SDS011;61391;50.922;6.928;2023-05-24T13:08:35;2.35;;;1.90;;
34697;SDS011;61391;50.922;6.928;2023-05-24T13:11:01;3.70;;;2.08;;
34697;SDS011;61391;50.922;6.928;2023-05-24T13:13:26;3.13;;;2.40;;
34697;SDS011;61391;50.922;6.928;2023-05-24T13:15:52;3.00;;;2.25;;
34697;SDS011;61391;50.922;6.928;2023-05-24T13:18:18;3.50;;;1.92;;
34697;SDS011;61391;50.922;6.928;2023-05-24T13:20:44;4.40;;;1.73;;
34697;SDS011;61391;50.922;6.928;2023-05-24T13:23:11;2.38;;;1.77;;
34697;SDS011;61391;50.922;6.928;2023-05-24T13:25:37;3.13;;;1.60;;
34697;SDS011;61391;50.922;6.928;2023-05-24T13:28:02;2.88;;;1.40;;
34697;SDS011;61391;50.922;6.928;2023-05-24T13:30:28;5.13;;;1.60;;
34697;SDS011;61391;50.922;6.928;2023-05-24T13:32:54;3.00;;;1.80;;
34697;SDS011;61391;50.922;6.928;2023-05-24T13:35:20;2.35;;;1.50;;
34697;SDS011;61391;50.922;6.928;2023-05-24T13:37:46;1.98;;;1.05;;
34697;SDS011;61391;50.922;6.928;2023-05-24T13:40:12;2.92;;;1.20;;
34697;SDS011;61391;50.922;6.928;2023-05-24T13:42:39;3.22;;;1.63;;
34697;SDS011;61391;50.922;6.928;2023-05-24T13:45:05;1.52;;;1.38;;
34697;SDS011;61391;50.922;6.928;2023-05-24T13:47:31;3.15;;;1.40;;
34697;SDS011;61391;50.922;6.928;2023-05-24T13:49:57;4.25;;;1.85;;
34697;SDS011;61391;50.922;6.928;2023-05-24T13:52:23;3.38;;;1.42;;
34697;SDS011;61391;50.922;6.928;2023-05-24T13:54:50;2.03;;;1.05;;
34697;SDS011;61391;50.922;6.928;2023-05-24T13:57:16;4.97;;;2.08;;
34697;SDS011;61391;50.922;6.928;2023-05-24T13:59:42;2.58;;;1.30;;
34697;SDS011;61391;50.922;6.928;2023-05-24T14:02:07;4.30;;;1.15;;
34697;SDS011;61391;50.922;6.928;2023-05-24T14:04:33;1.85;;;1.40;;
34697;SDS011;61391;50.922;6.928;2023-05-24T14:06:58;2.38;;;1.42;;
34697;SDS011;61391;50.922;6.928;2023-05-24T14:09:24;3.38;;;1.15;;
34697;SDS011;61391;50.922;6.928;2023-05-24T14:11:50;4.28;;;1.30;;
34697;SDS011;61391;50.922;6.928;2023-05-24T14:14:17;1.73;;;1.15;;
34697;SDS011;61391;50.922;6.928;2023-05-24T14:16:43;2.72;;;1.40;;
34697;SDS011;61391;50.922;6.928;2023-05-24T14:19:08;4.70;;;1.55;;
34697;SDS011;61391;50.922;6.928;2023-05-24T14:21:34;1.92;;;1.55;;
34697;SDS011;61391;50.922;6.928;2023-05-24T14:24:01;3.28;;;1.75;;
34697;SDS011;61391;50.922;6.928;2023-05-24T14:26:27;2.13;;;1.10;;
34697;SDS011;61391;50.922;6.928;2023-05-24T14:28:53;4.43;;;1.52;;
34697;SDS011;61391;50.922;6.928;2023-05-24T14:31:18;2.30;;;1.48;;
34697;SDS011;61391;50.922;6.928;2023-05-24T14:33:44;2.22;;;1.50;;
34697;SDS011;61391;50.922;6.928;2023-05-24T14:36:10;3.38;;;1.27;;
34697;SDS011;61391;50.922;6.928;2023-05-24T14:38:35;2.75;;;1.45;;
34697;SDS011;61391;50.922;6.928;2023-05-24T14:41:01;3.58;;;2.13;;
34697;SDS011;61391;50.922;6.928;2023-05-24T14:43:27;2.42;;;1.50;;
34697;SDS011;61391;50.922;6.928;2023-05-24T14:45:52;5.00;;;1.52;;
34697;SDS011;61391;50.922;6.928;2023-05-24T14:48:18;4.45;;;1.80;;
34697;SDS011;61391;50.922;6.928;2023-05-24T14:50:44;2.05;;;1.33;;
34697;SDS011;61391;50.922;6.928;2023-05-24T14:53:09;2.35;;;1.52;;
34697;SDS011;61391;50.922;6.928;2023-05-24T14:55:38;3.08;;;1.63;;
34697;SDS011;61391;50.922;6.928;2023-05-24T14:58:05;1.33;;;1.08;;
34697;SDS011;61391;50.922;6.928;2023-05-24T15:00:35;3.05;;;1.50;;
34697;SDS011;61391;50.922;6.928;2023-05-24T15:03:02;3.10;;;1.52;;
34697;SDS011;61391;50.922;6.928;2023-05-24T15:05:29;3.15;;;1.50;;
34697;SDS011;61391;50.922;6.928;2023-05-24T15:07:55;3.22;;;1.35;;
34697;SDS011;61391;50.922;6.928;2023-05-24T15:10:21;2.03;;;1.08;;
34697;SDS011;61391;50.922;6.928;2023-05-24T15:12:47;4.25;;;1.42;;
34697;SDS011;61391;50.922;6.928;2023-05-24T15:15:12;2.80;;;1.42;;
34697;SDS011;61391;50.922;6.928;2023-05-24T15:17:38;2.63;;;1.10;;
34697;SDS011;61391;50.922;6.928;2023-05-24T15:20:04;4.95;;;1.40;;
34697;SDS011;61391;50.922;6.928;2023-05-24T15:22:31;4.28;;;1.52;;
34697;SDS011;61391;50.922;6.928;2023-05-24T15:24:57;2.42;;;1.42;;
34697;SDS011;61391;50.922;6.928;2023-05-24T15:27:24;2.15;;;1.00;;
34697;SDS011;61391;50.922;6.928;2023-05-24T15:29:49;3.15;;;1.60;;
34697;SDS011;61391;50.922;6.928;2023-05-24T15:32:18;2.65;;;1.38;;
34697;SDS011;61391;50.922;6.928;2023-05-24T15:34:44;3.80;;;1.67;;
34697;SDS011;61391;50.922;6.928;2023-05-24T15:37:09;2.88;;;1.15;;
34697;SDS011;61391;50.922;6.928;2023-05-24T15:42:23;4.03;;;1.50;;
34697;SDS011;61391;50.922;6.928;2023-05-24T15:44:49;1.73;;;1.55;;
34697;SDS011;61391;50.922;6.928;2023-05-24T15:47:15;4.03;;;1.27;;
34697;SDS011;61391;50.922;6.928;2023-05-24T15:49:41;2.70;;;1.45;;
34697;SDS011;61391;50.922;6.928;2023-05-24T15:52:07;3.55;;;1.45;;
34697;SDS011;61391;50.922;6.928;2023-05-24T15:54:39;3.10;;;1.52;;
34697;SDS011;61391;50.922;6.928;2023-05-24T15:57:05;7.97;;;2.13;;
34697;SDS011;61391;50.922;6.928;2023-05-24T15:59:34;2.67;;;1.40;;
34697;SDS011;61391;50.922;6.928;2023-05-24T16:02:07;2.38;;;1.67;;
34697;SDS011;61391;50.922;6.928;2023-05-24T16:04:33;1.73;;;1.60;;
34697;SDS011;61391;50.922;6.928;2023-05-24T16:06:59;2.15;;;1.75;;
34697;SDS011;61391;50.922;6.928;2023-05-24T16:09:25;2.28;;;1.50;;
34697;SDS011;61391;50.922;6.928;2023-05-24T16:11:51;5.47;;;2.28;;